createdAt,value
2018-03-11T00:00:03.473Z,0
2018-03-11T00:02:05.157Z,0
2018-03-11T00:04:06.789Z,0
2018-03-11T00:06:08.581Z,0
2018-03-11T00:08:10.352Z,0
2018-03-11T00:10:12.118Z,0
2018-03-11T00:12:13.886Z,0
2018-03-11T00:14:15.503Z,0
2018-03-11T00:16:17.221Z,0
2018-03-11T00:18:18.845Z,0
2018-03-11T00:20:20.545Z,0
2018-03-11T00:22:22.162Z,0
2018-03-11T00:24:23.905Z,0
2018-03-11T00:26:26.267Z,0
2018-03-11T00:28:27.940Z,0
2018-03-11T00:30:29.682Z,0
2018-03-11T00:32:32.062Z,0
2018-03-11T00:34:33.826Z,0
2018-03-11T00:36:35.486Z,0
2018-03-11T00:38:38.116Z,0
2018-03-11T00:40:40.526Z,0
2018-03-11T00:42:42.256Z,0
2018-03-11T00:44:43.903Z,0
2018-03-11T00:46:45.624Z,0
2018-03-11T00:48:47.915Z,0
2018-03-11T00:50:49.697Z,0
2018-03-11T00:52:52.124Z,0
2018-03-11T00:54:53.924Z,0
2018-03-11T00:56:56.089Z,0
2018-03-11T00:58:58.054Z,0
2018-03-11T01:01:00.041Z,0
2018-03-11T01:03:01.941Z,0
2018-03-11T01:05:04.577Z,0
2018-03-11T01:07:06.342Z,0
2018-03-11T01:09:08.182Z,0
2018-03-11T01:11:09.999Z,0
2018-03-11T01:13:11.885Z,0
2018-03-11T01:15:13.692Z,0
2018-03-11T01:17:15.349Z,0
2018-03-11T01:19:17.005Z,0
2018-03-11T01:21:18.751Z,0
2018-03-11T01:23:20.464Z,0
2018-03-11T01:25:22.090Z,0
2018-03-11T01:27:23.795Z,0
2018-03-11T01:29:26.199Z,0
2018-03-11T01:31:27.865Z,0
2018-03-11T01:33:29.609Z,0
2018-03-11T01:35:31.255Z,0
2018-03-11T01:37:32.961Z,0
2018-03-11T01:39:34.648Z,0
2018-03-11T01:41:37.056Z,0
2018-03-11T01:43:38.603Z,0
2018-03-11T01:45:40.251Z,0
2018-03-11T01:47:41.928Z,0
2018-03-11T01:49:44.488Z,0
2018-03-11T01:51:46.988Z,0
2018-03-11T01:53:49.293Z,0
2018-03-11T01:55:51.021Z,0
2018-03-11T01:57:52.741Z,0
2018-03-11T01:59:54.406Z,0
2018-03-11T02:01:56.075Z,0
2018-03-11T02:03:58.687Z,0
2018-03-11T02:06:00.964Z,0
2018-03-11T02:08:02.634Z,0
2018-03-11T02:10:04.399Z,0
2018-03-11T02:12:06.082Z,0
2018-03-11T02:14:07.773Z,0
2018-03-11T02:16:09.491Z,0
2018-03-11T02:18:11.858Z,0
2018-03-11T02:20:13.429Z,0
2018-03-11T02:22:15.161Z,0
2018-03-11T02:24:16.855Z,0
2018-03-11T02:26:19.369Z,0
2018-03-11T02:28:21.767Z,0
2018-03-11T02:30:24.043Z,0
2018-03-11T02:32:25.868Z,0
2018-03-11T02:34:27.481Z,0
2018-03-11T02:36:29.211Z,0
2018-03-11T02:38:30.908Z,0
2018-03-11T02:40:32.629Z,0
2018-03-11T02:42:34.335Z,0
2018-03-11T02:44:36.146Z,0
2018-03-11T02:46:38.564Z,0
2018-03-11T02:48:40.252Z,0
2018-03-11T02:50:41.946Z,0
2018-03-11T02:52:43.619Z,0
2018-03-11T02:54:45.293Z,0
2018-03-11T02:56:47.665Z,0
2018-03-11T02:58:49.458Z,0
2018-03-11T03:00:51.156Z,0
2018-03-11T03:02:52.951Z,0
2018-03-11T03:04:54.586Z,0
2018-03-11T03:06:56.266Z,0
2018-03-11T03:08:58.775Z,0
2018-03-11T03:11:00.590Z,0
2018-03-11T03:13:02.356Z,0
2018-03-11T03:15:04.071Z,0
2018-03-11T03:17:05.829Z,0
2018-03-11T03:19:07.466Z,0
2018-03-11T03:21:09.730Z,0
2018-03-11T03:23:11.417Z,0
2018-03-11T03:25:13.156Z,0
2018-03-11T03:27:14.882Z,0
2018-03-11T03:29:16.561Z,0
2018-03-11T03:31:18.940Z,0
2018-03-11T03:33:20.567Z,0
2018-03-11T03:35:22.234Z,0
2018-03-11T03:37:24.733Z,0
2018-03-11T03:39:26.930Z,0
2018-03-11T03:41:28.517Z,0
2018-03-11T03:43:30.182Z,0
2018-03-11T03:45:31.954Z,0
2018-03-11T03:47:33.602Z,0
2018-03-11T03:49:35.290Z,0
2018-03-11T03:51:37.012Z,0
2018-03-11T03:53:38.624Z,0
2018-03-11T03:55:40.967Z,0
2018-03-11T03:57:43.234Z,0
2018-03-11T03:59:44.918Z,0
2018-03-11T04:01:46.966Z,0
2018-03-11T04:03:48.751Z,0
2018-03-11T04:05:50.353Z,0
2018-03-11T04:07:52.712Z,0
2018-03-11T04:09:55.110Z,0
2018-03-11T04:11:56.837Z,0
2018-03-11T04:13:58.546Z,0
2018-03-11T04:16:00.212Z,0
2018-03-11T04:18:01.960Z,0
2018-03-11T04:20:03.667Z,0
2018-03-11T04:22:05.289Z,0
2018-03-11T04:24:06.942Z,0
2018-03-11T04:26:08.635Z,0
2018-03-11T04:28:10.267Z,0
2018-03-11T04:30:11.929Z,0
2018-03-11T04:32:14.437Z,0
2018-03-11T04:34:16.111Z,0
2018-03-11T04:36:17.797Z,0
2018-03-11T04:38:19.468Z,0
2018-03-11T04:40:21.068Z,0
2018-03-11T04:42:22.788Z,0
2018-03-11T04:44:24.414Z,0
2018-03-11T04:46:26.087Z,0
2018-03-11T04:48:27.902Z,0
2018-03-11T04:50:29.658Z,0
2018-03-11T04:52:31.418Z,0
2018-03-11T04:54:33.103Z,0
2018-03-11T04:56:34.805Z,0
2018-03-11T04:58:36.469Z,0
2018-03-11T05:00:38.766Z,0
2018-03-11T05:02:41.150Z,0
2018-03-11T05:04:43.382Z,0
2018-03-11T05:06:44.974Z,0
2018-03-11T05:08:46.736Z,0
2018-03-11T05:10:48.495Z,0
2018-03-11T05:12:50.174Z,0
2018-03-11T05:14:51.899Z,0
2018-03-11T05:16:54.286Z,0
2018-03-11T05:18:55.971Z,0
2018-03-11T05:20:57.606Z,0
2018-03-11T05:23:00.110Z,0
2018-03-11T05:25:01.764Z,0
2018-03-11T05:27:04.231Z,0
2018-03-11T05:29:06.575Z,0
2018-03-11T05:31:08.159Z,0
2018-03-11T05:33:09.818Z,0
2018-03-11T05:35:11.439Z,0
2018-03-11T05:37:13.777Z,0
2018-03-11T05:39:15.411Z,0
2018-03-11T05:41:17.152Z,0
2018-03-11T05:43:19.761Z,0
2018-03-11T05:45:21.486Z,0
2018-03-11T05:47:23.090Z,0
2018-03-11T05:49:25.530Z,0
2018-03-11T05:51:27.183Z,0
2018-03-11T05:53:28.812Z,0
2018-03-11T05:55:30.483Z,0
2018-03-11T05:57:32.185Z,0
2018-03-11T05:59:33.825Z,0
2018-03-11T06:01:35.590Z,0
2018-03-11T06:03:37.389Z,0
2018-03-11T06:05:39.110Z,5
2018-03-11T06:07:40.896Z,5
2018-03-11T06:09:42.595Z,5
2018-03-11T06:11:44.292Z,5
2018-03-11T06:13:46.752Z,10
2018-03-11T06:15:48.392Z,10
2018-03-11T06:17:50.153Z,10
2018-03-11T06:19:52.443Z,15
2018-03-11T06:21:54.829Z,15
2018-03-11T06:23:56.524Z,15
2018-03-11T06:25:58.935Z,15
2018-03-11T06:28:01.351Z,15
2018-03-11T06:30:03.067Z,20
2018-03-11T06:32:05.565Z,20
2018-03-11T06:34:07.833Z,20
2018-03-11T06:36:10.117Z,25
2018-03-11T06:38:12.366Z,25
2018-03-11T06:40:14.079Z,30
2018-03-11T06:42:15.752Z,30
2018-03-11T06:44:17.786Z,30
2018-03-11T06:46:19.499Z,30
2018-03-11T06:48:21.267Z,35
2018-03-11T06:50:22.981Z,35
2018-03-11T06:52:24.734Z,35
2018-03-11T06:54:26.524Z,35
2018-03-11T06:56:28.304Z,35
2018-03-11T06:58:30.073Z,35
2018-03-11T07:00:31.740Z,35
2018-03-11T07:02:33.564Z,35
2018-03-11T07:04:35.388Z,35
2018-03-11T07:06:37.100Z,35
2018-03-11T07:08:38.800Z,35
2018-03-11T07:10:40.548Z,35
2018-03-11T07:12:42.933Z,30
2018-03-11T07:14:44.696Z,25
2018-03-11T07:16:46.425Z,35
2018-03-11T07:18:48.151Z,35
2018-03-11T07:20:50.552Z,35
2018-03-11T07:22:52.881Z,40
2018-03-11T07:24:54.701Z,35
2018-03-11T07:26:57.038Z,35
2018-03-11T07:28:58.862Z,35
2018-03-11T07:31:01.167Z,30
2018-03-11T07:33:02.977Z,30
2018-03-11T07:35:04.715Z,35
2018-03-11T07:37:06.414Z,40
2018-03-11T07:39:09.308Z,40
2018-03-11T07:41:11.065Z,40
2018-03-11T07:43:12.811Z,40
2018-03-11T07:45:14.525Z,40
2018-03-11T07:47:16.319Z,45
2018-03-11T07:49:17.972Z,65
2018-03-11T07:51:19.645Z,65
2018-03-11T07:53:21.330Z,90
2018-03-11T07:55:23.082Z,80
2018-03-11T07:57:24.768Z,85
2018-03-11T07:59:26.531Z,60
2018-03-11T08:01:28.277Z,30
2018-03-11T08:03:29.989Z,15
2018-03-11T08:05:33.677Z,15
2018-03-11T08:07:35.941Z,20
2018-03-11T08:09:37.603Z,25
2018-03-11T08:11:39.327Z,25
2018-03-11T08:13:42.680Z,30
2018-03-11T08:15:44.978Z,50
2018-03-11T08:17:48.095Z,35
2018-03-11T08:19:49.754Z,30
2018-03-11T08:21:52.330Z,30
2018-03-11T08:23:54.058Z,35
2018-03-11T08:25:55.922Z,45
2018-03-11T08:27:57.744Z,50
2018-03-11T08:29:59.566Z,45
2018-03-11T08:32:01.219Z,45
2018-03-11T08:34:03.346Z,65
2018-03-11T08:36:07.638Z,80
2018-03-11T08:38:11.729Z,60
2018-03-11T08:40:16.288Z,30
2018-03-11T08:42:18.100Z,25
2018-03-11T08:44:20.503Z,20
2018-03-11T08:46:23.340Z,20
2018-03-11T08:48:25.692Z,20
2018-03-11T08:50:28.215Z,25
2018-03-11T08:52:30.937Z,25
2018-03-11T08:54:33.784Z,25
2018-03-11T08:56:36.435Z,30
2018-03-11T08:58:40.265Z,30
2018-03-11T09:00:42.062Z,35
2018-03-11T09:02:45.854Z,45
2018-03-11T09:04:48.351Z,45
2018-03-11T09:06:51.116Z,55
2018-03-11T09:08:52.477Z,45
2018-03-11T09:10:54.169Z,30
2018-03-11T09:12:55.774Z,25
2018-03-11T09:14:58.578Z,20
2018-03-11T09:17:00.881Z,15
2018-03-11T09:19:03.119Z,15
2018-03-11T09:21:05.328Z,20
2018-03-11T09:23:08.532Z,25
2018-03-11T09:25:10.309Z,30
2018-03-11T09:27:12.846Z,30
2018-03-11T09:29:14.570Z,35
2018-03-11T09:31:16.303Z,60
2018-03-11T09:33:22.752Z,110
2018-03-11T09:35:24.993Z,190
2018-03-11T09:37:26.666Z,160
2018-03-11T09:39:28.681Z,130
2018-03-11T09:41:30.538Z,115
2018-03-11T09:43:32.230Z,110
2018-03-11T09:45:34.305Z,175
2018-03-11T09:47:35.958Z,160
2018-03-11T09:49:37.640Z,120
2018-03-11T09:51:39.300Z,75
2018-03-11T09:53:41.492Z,60
2018-03-11T09:55:43.624Z,50
2018-03-11T09:57:45.767Z,40
2018-03-11T09:59:47.421Z,30
2018-03-11T10:01:49.134Z,30
2018-03-11T10:03:51.230Z,30
2018-03-11T10:05:53.654Z,30
2018-03-11T10:07:55.340Z,30
2018-03-11T10:09:57.268Z,25
2018-03-11T10:11:58.968Z,25
2018-03-11T10:14:01.081Z,30
2018-03-11T10:16:02.818Z,35
2018-03-11T10:18:04.657Z,35
2018-03-11T10:20:06.593Z,30
2018-03-11T10:22:08.251Z,30
2018-03-11T10:24:10.522Z,20
2018-03-11T10:26:12.974Z,20
2018-03-11T10:28:14.791Z,20
2018-03-11T10:30:16.551Z,20
2018-03-11T10:32:18.926Z,20
2018-03-11T10:34:20.614Z,15
2018-03-11T10:36:22.670Z,20
2018-03-11T10:38:24.392Z,20
2018-03-11T10:40:26.243Z,25
2018-03-11T10:42:27.930Z,30
2018-03-11T10:44:29.659Z,35
2018-03-11T10:46:31.368Z,40
2018-03-11T10:48:33.034Z,45
2018-03-11T10:50:34.819Z,45
2018-03-11T10:52:36.664Z,50
2018-03-11T10:54:38.368Z,55
2018-03-11T10:56:40.042Z,65
2018-03-11T10:58:41.834Z,65
2018-03-11T11:00:43.462Z,70
2018-03-11T11:02:45.140Z,70
2018-03-11T11:04:46.823Z,65
2018-03-11T11:06:48.484Z,60
2018-03-11T11:08:50.288Z,60
2018-03-11T11:10:52.420Z,55
2018-03-11T11:12:54.688Z,50
2018-03-11T11:14:56.771Z,45
2018-03-11T11:16:58.541Z,45
2018-03-11T11:19:00.169Z,45
2018-03-11T11:21:01.924Z,50
2018-03-11T11:23:04.020Z,50
2018-03-11T11:25:05.688Z,50
2018-03-11T11:27:07.942Z,45
2018-03-11T11:29:09.719Z,45
2018-03-11T11:31:11.871Z,45
2018-03-11T11:33:14.027Z,40
2018-03-11T11:35:15.841Z,40
2018-03-11T11:37:17.637Z,35
2018-03-11T11:39:19.226Z,30
2018-03-11T11:41:20.882Z,30
2018-03-11T11:43:22.552Z,30
2018-03-11T11:45:24.811Z,30
2018-03-11T11:47:26.518Z,30
2018-03-11T11:49:28.646Z,25
2018-03-11T11:51:30.340Z,20
2018-03-11T11:53:31.994Z,20
2018-03-11T11:55:33.752Z,25
2018-03-11T11:57:35.508Z,30
2018-03-11T11:59:37.650Z,20
2018-03-11T12:01:39.829Z,15
2018-03-11T12:03:41.572Z,15
2018-03-11T12:05:43.284Z,10
2018-03-11T12:07:45.004Z,10
2018-03-11T12:09:47.163Z,10
2018-03-11T12:11:48.862Z,10
2018-03-11T12:13:50.578Z,10
2018-03-11T12:15:52.282Z,15
2018-03-11T12:17:54.173Z,20
2018-03-11T12:19:55.805Z,20
2018-03-11T12:21:57.567Z,15
2018-03-11T12:23:59.783Z,15
2018-03-11T12:26:02.012Z,25
2018-03-11T12:28:04.409Z,25
2018-03-11T12:30:06.084Z,25
2018-03-11T12:32:07.854Z,30
2018-03-11T12:34:10.077Z,35
2018-03-11T12:36:11.811Z,35
2018-03-11T12:38:13.569Z,35
2018-03-11T12:40:15.358Z,35
2018-03-11T12:42:17.174Z,35
2018-03-11T12:44:18.904Z,35
2018-03-11T12:46:20.692Z,35
2018-03-11T12:48:22.378Z,30
2018-03-11T12:50:24.134Z,30
2018-03-11T12:52:25.903Z,35
2018-03-11T12:54:27.682Z,40
2018-03-11T12:56:29.950Z,35
2018-03-11T12:58:31.792Z,35
2018-03-11T13:00:33.561Z,40
2018-03-11T13:02:35.357Z,40
2018-03-11T13:04:37.076Z,40
2018-03-11T13:06:38.821Z,40
2018-03-11T13:08:40.588Z,40
2018-03-11T13:10:42.341Z,40
2018-03-11T13:12:45.015Z,40
2018-03-11T13:14:46.728Z,45
2018-03-11T13:16:48.463Z,45
2018-03-11T13:18:50.168Z,50
2018-03-11T13:20:52.578Z,50
2018-03-11T13:22:54.357Z,50
2018-03-11T13:24:56.380Z,50
2018-03-11T13:26:58.570Z,50
2018-03-11T13:29:00.315Z,50
2018-03-11T13:31:02.761Z,50
2018-03-11T13:33:04.699Z,50
2018-03-11T13:35:06.837Z,50
2018-03-11T13:37:10.425Z,50
2018-03-11T13:39:12.187Z,50
2018-03-11T13:41:14.022Z,50
2018-03-11T13:43:16.658Z,45
2018-03-11T13:45:18.362Z,40
2018-03-11T13:47:20.366Z,35
2018-03-11T13:49:22.552Z,30
2018-03-11T13:51:24.307Z,30
2018-03-11T13:53:25.985Z,30
2018-03-11T13:55:27.720Z,30
2018-03-11T13:57:29.792Z,25
2018-03-11T13:59:31.437Z,20
2018-03-11T14:01:33.106Z,20
2018-03-11T14:03:34.792Z,25
2018-03-11T14:05:36.979Z,25
2018-03-11T14:07:38.865Z,20
2018-03-11T14:09:40.665Z,15
2018-03-11T14:11:42.553Z,20
2018-03-11T14:13:44.178Z,25
2018-03-11T14:15:45.966Z,20
2018-03-11T14:17:48.116Z,20
2018-03-11T14:19:50.019Z,15
2018-03-11T14:21:51.982Z,15
2018-03-11T14:23:53.629Z,15
2018-03-11T14:25:55.401Z,10
2018-03-11T14:27:57.600Z,10
2018-03-11T14:29:59.366Z,15
2018-03-11T14:32:01.115Z,15
2018-03-11T14:34:03.435Z,15
2018-03-11T14:36:05.161Z,15
2018-03-11T14:38:06.919Z,15
2018-03-11T14:40:08.651Z,15
2018-03-11T14:42:10.496Z,15
2018-03-11T14:44:12.112Z,15
2018-03-11T14:46:13.770Z,15
2018-03-11T14:48:15.467Z,20
2018-03-11T14:50:17.189Z,20
2018-03-11T14:52:19.006Z,20
2018-03-11T14:54:21.278Z,20
2018-03-11T14:56:22.901Z,20
2018-03-11T14:58:24.582Z,20
2018-03-11T15:00:26.368Z,15
2018-03-11T15:02:28.704Z,15
2018-03-11T15:04:30.402Z,15
2018-03-11T15:06:32.101Z,20
2018-03-11T15:08:33.847Z,20
2018-03-11T15:10:35.549Z,20
2018-03-11T15:12:37.266Z,15
2018-03-11T15:14:38.938Z,10
2018-03-11T15:16:40.651Z,10
2018-03-11T15:18:42.535Z,15
2018-03-11T15:20:44.221Z,20
2018-03-11T15:22:45.837Z,20
2018-03-11T15:24:47.635Z,20
2018-03-11T15:26:49.305Z,25
2018-03-11T15:28:51.020Z,25
2018-03-11T15:30:52.810Z,25
2018-03-11T15:32:54.486Z,25
2018-03-11T15:34:56.270Z,25
2018-03-11T15:36:58.249Z,25
2018-03-11T15:38:59.972Z,30
2018-03-11T15:41:01.609Z,30
2018-03-11T15:43:03.320Z,35
2018-03-11T15:45:05.580Z,30
2018-03-11T15:47:07.309Z,35
2018-03-11T15:49:08.997Z,40
2018-03-11T15:51:10.774Z,45
2018-03-11T15:53:13.029Z,50
2018-03-11T15:55:14.817Z,40
2018-03-11T15:57:16.621Z,45
2018-03-11T15:59:18.430Z,40
2018-03-11T16:01:20.205Z,25
2018-03-11T16:03:21.910Z,35
2018-03-11T16:05:24.182Z,35
2018-03-11T16:07:26.250Z,30
2018-03-11T16:09:27.955Z,30
2018-03-11T16:11:30.226Z,30
2018-03-11T16:13:31.971Z,25
2018-03-11T16:15:33.713Z,20
2018-03-11T16:17:35.876Z,20
2018-03-11T16:19:37.926Z,20
2018-03-11T16:21:39.677Z,25
2018-03-11T16:23:41.368Z,25
2018-03-11T16:25:43.119Z,20
2018-03-11T16:27:44.870Z,20
2018-03-11T16:29:46.620Z,20
2018-03-11T16:31:48.362Z,20
2018-03-11T16:33:50.022Z,20
2018-03-11T16:35:52.625Z,15
2018-03-11T16:37:55.956Z,15
2018-03-11T16:39:58.863Z,15
2018-03-11T16:42:01.871Z,15
2018-03-11T16:44:03.764Z,15
2018-03-11T16:46:05.612Z,10
2018-03-11T16:48:07.350Z,10
2018-03-11T16:50:09.094Z,10
2018-03-11T16:52:10.830Z,10
2018-03-11T16:54:12.467Z,10
2018-03-11T16:56:14.163Z,10
2018-03-11T16:58:15.906Z,5
2018-03-11T17:00:17.668Z,5
2018-03-11T17:02:19.335Z,5
2018-03-11T17:04:21.617Z,5
2018-03-11T17:06:23.348Z,5
2018-03-11T17:08:25.050Z,5
2018-03-11T17:10:26.828Z,5
2018-03-11T17:12:28.505Z,5
2018-03-11T17:14:30.218Z,0
2018-03-11T17:16:31.975Z,0
2018-03-11T17:18:33.671Z,0
2018-03-11T17:20:35.362Z,0
2018-03-11T17:22:37.017Z,0
2018-03-11T17:24:38.757Z,0
2018-03-11T17:26:40.399Z,0
2018-03-11T17:28:42.217Z,0
2018-03-11T17:30:43.921Z,0
2018-03-11T17:32:45.683Z,0
2018-03-11T17:34:47.364Z,0
2018-03-11T17:36:49.633Z,0
2018-03-11T17:38:51.392Z,0
2018-03-11T17:40:52.983Z,0
2018-03-11T17:42:55.042Z,0
2018-03-11T17:44:57.282Z,0
2018-03-11T17:46:59.132Z,0
2018-03-11T17:49:00.826Z,0
2018-03-11T17:51:02.513Z,0
2018-03-11T17:53:04.746Z,0
2018-03-11T17:55:06.395Z,0
2018-03-11T17:57:08.024Z,0
2018-03-11T17:59:09.748Z,0
2018-03-11T18:01:12.275Z,0
2018-03-11T18:03:13.813Z,0
2018-03-11T18:05:15.605Z,0
2018-03-11T18:07:17.232Z,0
2018-03-11T18:09:18.929Z,0
2018-03-11T18:11:20.552Z,0
2018-03-11T18:13:22.209Z,0
2018-03-11T18:15:23.921Z,0
2018-03-11T18:17:25.651Z,0
2018-03-11T18:19:27.945Z,0
2018-03-11T18:21:29.713Z,0
2018-03-11T18:23:31.444Z,0
2018-03-11T18:25:33.804Z,0
2018-03-11T18:27:36.123Z,0
2018-03-11T18:29:37.774Z,0
2018-03-11T18:31:40.719Z,0
2018-03-11T18:33:43.093Z,0
2018-03-11T18:35:45.685Z,0
2018-03-11T18:37:47.313Z,0
2018-03-11T18:39:48.935Z,0
2018-03-11T18:41:50.600Z,0
2018-03-11T18:43:52.359Z,0
2018-03-11T18:45:53.982Z,0
2018-03-11T18:47:56.244Z,0
2018-03-11T18:49:58.018Z,0
2018-03-11T18:52:00.483Z,0
2018-03-11T18:54:02.110Z,0
2018-03-11T18:56:03.849Z,0
2018-03-11T18:58:05.527Z,0
2018-03-11T19:00:08.099Z,0
2018-03-11T19:02:10.398Z,0
2018-03-11T19:04:13.633Z,0
2018-03-11T19:06:15.396Z,0
2018-03-11T19:08:17.740Z,0
2018-03-11T19:10:19.393Z,0
2018-03-11T19:12:21.721Z,0
2018-03-11T19:14:24.571Z,0
2018-03-11T19:16:26.300Z,0
2018-03-11T19:18:27.960Z,0
2018-03-11T19:20:30.336Z,0
2018-03-11T19:22:32.709Z,0
2018-03-11T19:24:36.133Z,0
2018-03-11T19:26:38.321Z,0
2018-03-11T19:28:41.615Z,0
2018-03-11T19:30:45.685Z,0
2018-03-11T19:32:49.271Z,0
2018-03-11T19:34:51.342Z,0
2018-03-11T19:36:55.731Z,0
2018-03-11T19:38:58.784Z,0
2018-03-11T19:41:02.389Z,0
2018-03-11T19:43:08.719Z,0
2018-03-11T19:45:12.761Z,0
2018-03-11T19:47:15.390Z,0
2018-03-11T19:49:22.139Z,0
2018-03-11T19:51:25.783Z,0
2018-03-11T19:53:28.171Z,0
2018-03-11T19:55:32.135Z,0
2018-03-11T19:57:38.647Z,0
2018-03-11T19:59:42.382Z,0
2018-03-11T20:01:46.925Z,0
2018-03-11T20:03:50.093Z,0
2018-03-11T20:05:53.102Z,0
2018-03-11T20:07:59.303Z,0
2018-03-11T20:10:08.223Z,0
2018-03-11T20:12:12.827Z,0
2018-03-11T20:14:17.230Z,0
2018-03-11T20:16:23.269Z,0
2018-03-11T20:18:27.809Z,0
2018-03-11T20:20:31.439Z,0
2018-03-11T20:22:35.294Z,0
2018-03-11T20:24:40.244Z,0
2018-03-11T20:26:46.213Z,0
2018-03-11T20:28:53.645Z,0
2018-03-11T20:30:59.347Z,0
2018-03-11T20:33:10.340Z,0
2018-03-11T20:35:15.017Z,0
2018-03-11T20:37:18.035Z,0
2018-03-11T20:39:21.007Z,0
2018-03-11T20:41:25.366Z,0
2018-03-11T20:43:30.421Z,0
2018-03-11T20:45:32.085Z,0
2018-03-11T20:47:35.110Z,0
2018-03-11T20:49:37.569Z,0
2018-03-11T20:51:40.961Z,0
2018-03-11T20:53:45.205Z,0
2018-03-11T20:55:49.145Z,0
2018-03-11T20:57:51.436Z,0
2018-03-11T20:59:53.798Z,0
2018-03-11T21:01:55.433Z,0
2018-03-11T21:03:59.267Z,0
2018-03-11T21:06:02.517Z,0
2018-03-11T21:08:05.013Z,0
2018-03-11T21:10:06.627Z,0
2018-03-11T21:12:08.363Z,0
2018-03-11T21:14:10.056Z,0
2018-03-11T21:16:12.567Z,0
2018-03-11T21:18:14.275Z,0
2018-03-11T21:20:15.934Z,0
2018-03-11T21:22:18.483Z,0
2018-03-11T21:24:20.925Z,0
2018-03-11T21:26:23.260Z,0
2018-03-11T21:28:24.949Z,0
2018-03-11T21:30:26.727Z,0
2018-03-11T21:32:28.442Z,0
2018-03-11T21:34:30.199Z,0
2018-03-11T21:36:31.832Z,0
2018-03-11T21:38:33.634Z,0
2018-03-11T21:40:35.323Z,0
2018-03-11T21:42:37.532Z,0
2018-03-11T21:44:39.299Z,0
2018-03-11T21:46:41.045Z,0
2018-03-11T21:48:43.321Z,0
2018-03-11T21:50:45.633Z,0
2018-03-11T21:52:47.309Z,0
2018-03-11T21:54:49.549Z,0
2018-03-11T21:56:51.266Z,0
2018-03-11T21:58:52.930Z,0
2018-03-11T22:00:54.598Z,0
2018-03-11T22:02:56.508Z,0
2018-03-11T22:04:58.254Z,0
2018-03-11T22:07:00.042Z,0
2018-03-11T22:09:01.718Z,0
2018-03-11T22:11:03.480Z,0
2018-03-11T22:13:05.151Z,0
2018-03-11T22:15:06.932Z,0
2018-03-11T22:17:08.593Z,0
2018-03-11T22:19:10.836Z,0
2018-03-11T22:21:12.982Z,0
2018-03-11T22:23:14.666Z,0
2018-03-11T22:25:16.351Z,0
2018-03-11T22:27:18.024Z,0
2018-03-11T22:29:19.618Z,0
2018-03-11T22:31:22.027Z,0
2018-03-11T22:33:23.941Z,0
2018-03-11T22:35:25.733Z,0
2018-03-11T22:37:27.404Z,0
2018-03-11T22:39:29.031Z,0
2018-03-11T22:41:31.422Z,0
2018-03-11T22:43:33.805Z,0
2018-03-11T22:45:36.139Z,0
2018-03-11T22:47:37.904Z,0
2018-03-11T22:49:40.442Z,0
2018-03-11T22:51:42.059Z,0
2018-03-11T22:53:43.856Z,0
2018-03-11T22:55:45.590Z,0
2018-03-11T22:57:47.273Z,0
2018-03-11T22:59:48.940Z,0
2018-03-11T23:01:50.558Z,0
2018-03-11T23:03:52.402Z,0
2018-03-11T23:05:54.064Z,0
2018-03-11T23:07:55.777Z,0
2018-03-11T23:09:57.540Z,0
2018-03-11T23:11:59.153Z,0
2018-03-11T23:14:00.886Z,0
2018-03-11T23:16:03.179Z,0
2018-03-11T23:18:05.459Z,0
2018-03-11T23:20:07.123Z,0
2018-03-11T23:22:08.840Z,0
2018-03-11T23:24:10.527Z,0
2018-03-11T23:26:12.255Z,0
2018-03-11T23:28:14.485Z,0
2018-03-11T23:30:16.202Z,0
2018-03-11T23:32:18.021Z,0
2018-03-11T23:34:19.749Z,0
2018-03-11T23:36:21.537Z,0
2018-03-11T23:38:23.371Z,0
2018-03-11T23:40:25.023Z,0
2018-03-11T23:42:26.820Z,0
2018-03-11T23:44:28.517Z,0
2018-03-11T23:46:30.292Z,0
2018-03-11T23:48:32.144Z,0
2018-03-11T23:50:33.806Z,0
2018-03-11T23:52:36.188Z,0
2018-03-11T23:54:37.701Z,0
2018-03-11T23:56:39.418Z,0
2018-03-11T23:58:41.088Z,0
